createdAt,value
2022-09-11T00:01:48.921Z,3.20
2022-09-11T00:04:18.499Z,3.70
2022-09-11T00:06:46.767Z,3.40
2022-09-11T00:09:15.554Z,3.50
2022-09-11T00:11:44.379Z,2.63
2022-09-11T00:14:14.825Z,3.40
2022-09-11T00:16:47.293Z,3.50
2022-09-11T00:19:21.816Z,3.40
2022-09-11T00:21:50.887Z,3.73
2022-09-11T00:24:19.167Z,3.50
2022-09-11T00:26:47.460Z,3.90
2022-09-11T00:29:15.726Z,3.60
2022-09-11T00:31:44.126Z,3.30
2022-09-11T00:34:12.466Z,3.90
2022-09-11T00:36:43.186Z,3.80
2022-09-11T00:39:14.164Z,3.23
2022-09-11T00:41:46.821Z,3.63
2022-09-11T00:45:00.723Z,3.83
2022-09-11T00:47:32.087Z,3.20
2022-09-11T00:50:13.140Z,3.37
2022-09-11T00:52:53.232Z,2.93
2022-09-11T00:55:24.042Z,3.40
2022-09-11T00:57:58.982Z,3.40
2022-09-11T01:00:27.893Z,3.33
2022-09-11T01:02:58.263Z,3.20
2022-09-11T01:05:32.929Z,3.27
2022-09-11T01:08:03.994Z,3.17
2022-09-11T01:10:47.733Z,3.33
2022-09-11T01:13:33.907Z,3.47
2022-09-11T01:16:19.583Z,3.30
2022-09-11T01:19:01.971Z,3.77
2022-09-11T01:22:19.646Z,4.00
2022-09-11T01:25:06.038Z,3.40
2022-09-11T01:27:48.187Z,3.93
2022-09-11T01:30:19.944Z,4.10
2022-09-11T01:33:13.545Z,4.07
2022-09-11T01:35:56.322Z,4.67
2022-09-11T01:38:35.355Z,5.10
2022-09-11T01:41:10.766Z,6.03
2022-09-11T01:43:51.322Z,5.53
2022-09-11T01:46:25.185Z,6.60
2022-09-11T01:49:06.645Z,7.60
2022-09-11T01:51:39.645Z,7.43
2022-09-11T01:54:17.506Z,8.80
2022-09-11T01:56:52.951Z,8.47
2022-09-11T01:59:32.091Z,8.80
2022-09-11T02:02:08.464Z,9.23
2022-09-11T02:04:42.559Z,8.77
2022-09-11T02:07:18.249Z,9.13
2022-09-11T02:09:58.447Z,8.80
2022-09-11T02:12:40.897Z,8.40
2022-09-11T02:15:15.833Z,8.67
2022-09-11T02:17:55.110Z,8.30
2022-09-11T02:20:31.640Z,8.63
2022-09-11T02:23:00.192Z,7.40
2022-09-11T02:25:29.004Z,8.33
2022-09-11T02:27:58.947Z,7.97
2022-09-11T02:30:28.766Z,7.70
2022-09-11T02:32:57.160Z,8.00
2022-09-11T02:35:45.286Z,7.47
2022-09-11T02:38:26.329Z,7.27
2022-09-11T02:41:03.857Z,6.93
2022-09-11T02:43:52.575Z,6.47
2022-09-11T02:46:49.167Z,6.27
2022-09-11T02:49:30.800Z,5.53
2022-09-11T02:52:10.370Z,6.23
2022-09-11T02:54:54.390Z,5.80
2022-09-11T02:57:31.603Z,5.47
2022-09-11T03:00:03.862Z,5.33
2022-09-11T03:02:40.397Z,5.23
2022-09-11T03:05:12.044Z,5.37
2022-09-11T03:07:42.443Z,5.00
2022-09-11T03:10:12.120Z,5.07
2022-09-11T03:12:41.752Z,4.40
2022-09-11T03:15:12.287Z,5.50
2022-09-11T03:17:45.410Z,5.17
2022-09-11T03:20:16.718Z,5.13
2022-09-11T03:22:44.941Z,5.30
2022-09-11T03:25:15.044Z,5.30
2022-09-11T03:27:44.988Z,5.30
2022-09-11T03:30:15.151Z,5.40
2022-09-11T03:32:45.651Z,5.57
2022-09-11T03:35:15.070Z,5.90
2022-09-11T03:37:44.269Z,5.50
2022-09-11T03:40:12.650Z,5.17
2022-09-11T03:42:40.928Z,5.43
2022-09-11T03:45:10.614Z,5.67
2022-09-11T03:47:41.113Z,5.10
2022-09-11T03:50:12.533Z,5.30
2022-09-11T03:52:41.303Z,5.33
2022-09-11T03:55:10.341Z,5.47
2022-09-11T03:57:39.885Z,6.30
2022-09-11T04:00:11.506Z,5.90
2022-09-11T04:02:49.623Z,6.20
2022-09-11T04:05:32.009Z,6.57
2022-09-11T04:08:02.464Z,6.10
2022-09-11T04:10:34.147Z,7.67
2022-09-11T04:13:28.932Z,10.20
2022-09-11T04:16:20.163Z,11.40
2022-09-11T04:19:13.332Z,11.77
2022-09-11T04:22:03.867Z,12.17
2022-09-11T04:24:54.372Z,12.90
2022-09-11T04:27:42.425Z,12.70
2022-09-11T04:30:38.598Z,13.60
2022-09-11T04:33:26.536Z,13.07
2022-09-11T04:36:17.686Z,13.80
2022-09-11T04:39:07.086Z,13.67
2022-09-11T04:41:55.870Z,13.57
2022-09-11T04:44:43.720Z,15.73
2022-09-11T04:47:31.616Z,14.77
2022-09-11T04:50:19.645Z,14.50
2022-09-11T04:53:28.852Z,13.40
2022-09-11T04:56:21.345Z,13.77
2022-09-11T04:59:15.772Z,14.87
2022-09-11T05:02:08.010Z,15.93
2022-09-11T05:05:00.133Z,15.20
2022-09-11T05:07:50.935Z,15.93
2022-09-11T05:10:39.218Z,13.73
2022-09-11T05:13:36.065Z,14.03
2022-09-11T05:16:24.478Z,14.20
2022-09-11T05:19:12.507Z,14.07
2022-09-11T05:22:00.992Z,14.50
2022-09-11T05:24:49.660Z,14.17
2022-09-11T05:27:38.028Z,13.90
2022-09-11T05:30:29.485Z,15.63
2022-09-11T05:33:17.414Z,15.73
2022-09-11T05:36:07.310Z,15.70
2022-09-11T05:38:56.018Z,15.30
2022-09-11T05:41:44.044Z,16.57
2022-09-11T05:44:33.905Z,19.43
2022-09-11T05:47:23.197Z,19.20
2022-09-11T05:49:54.830Z,19.77
2022-09-11T05:52:24.769Z,18.30
2022-09-11T05:54:54.187Z,21.53
2022-09-11T05:57:22.794Z,22.53
2022-09-11T05:59:52.193Z,21.97
2022-09-11T06:02:20.836Z,23.03
2022-09-11T06:04:56.415Z,21.67
2022-09-11T06:07:26.803Z,24.37
2022-09-11T06:10:02.317Z,24.47
2022-09-11T06:12:32.435Z,23.27
2022-09-11T06:15:00.843Z,23.40
2022-09-11T06:17:29.617Z,24.37
2022-09-11T06:19:59.596Z,23.53
2022-09-11T06:22:29.686Z,25.17
2022-09-11T06:24:58.492Z,25.63
2022-09-11T06:27:28.305Z,24.07
2022-09-11T06:29:56.672Z,27.47
2022-09-11T06:32:25.035Z,25.47
2022-09-11T06:34:54.393Z,26.63
2022-09-11T06:37:23.969Z,28.90
2022-09-11T06:39:52.439Z,30.43
2022-09-11T06:42:26.950Z,29.90
2022-09-11T06:44:58.967Z,30.40
2022-09-11T06:47:27.568Z,29.77
2022-09-11T06:49:57.069Z,28.27
2022-09-11T06:52:35.960Z,25.80
2022-09-11T06:55:14.379Z,29.40
2022-09-11T06:57:49.591Z,29.37
2022-09-11T07:00:23.138Z,24.13
2022-09-11T07:02:53.780Z,22.43
2022-09-11T07:05:24.582Z,21.93
2022-09-11T07:07:56.190Z,22.00
2022-09-11T07:10:26.678Z,21.37
2022-09-11T07:12:59.584Z,19.87
2022-09-11T07:15:28.250Z,18.13
2022-09-11T07:18:01.400Z,16.83
2022-09-11T07:20:29.727Z,15.83
2022-09-11T07:22:59.423Z,15.70
2022-09-11T07:25:30.285Z,15.50
2022-09-11T07:27:59.082Z,15.43
2022-09-11T07:30:27.920Z,15.00
2022-09-11T07:32:57.376Z,15.47
2022-09-11T07:35:26.022Z,14.43
2022-09-11T07:37:55.160Z,14.33
2022-09-11T07:40:28.706Z,16.07
2022-09-11T07:43:00.094Z,14.77
2022-09-11T07:45:29.677Z,16.23
2022-09-11T07:48:01.987Z,16.63
2022-09-11T07:50:31.967Z,14.97
2022-09-11T07:53:00.876Z,16.17
2022-09-11T07:55:31.133Z,14.50
2022-09-11T07:57:59.695Z,13.80
2022-09-11T08:00:28.353Z,12.07
2022-09-11T08:03:06.731Z,10.17
2022-09-11T08:05:37.664Z,9.60
2022-09-11T08:08:06.818Z,9.03
2022-09-11T08:10:40.940Z,8.83
2022-09-11T08:13:11.520Z,9.00
2022-09-11T08:15:47.838Z,9.60
2022-09-11T08:18:16.961Z,10.67
2022-09-11T08:20:45.416Z,10.60
2022-09-11T08:23:14.625Z,11.30
2022-09-11T08:25:45.968Z,11.87
2022-09-11T08:28:15.009Z,12.50
2022-09-11T08:30:44.181Z,11.87
2022-09-11T08:33:14.044Z,12.77
2022-09-11T08:35:42.882Z,12.63
2022-09-11T08:38:11.113Z,12.43
2022-09-11T08:40:40.032Z,12.40
2022-09-11T08:43:23.167Z,12.07
2022-09-11T08:46:03.793Z,12.53
2022-09-11T08:48:46.409Z,12.97
2022-09-11T08:51:19.128Z,12.10
2022-09-11T08:53:48.848Z,10.87
2022-09-11T08:56:23.324Z,10.37
2022-09-11T08:59:17.355Z,10.13
2022-09-11T09:01:56.717Z,10.17
2022-09-11T09:04:58.199Z,9.20
2022-09-11T09:07:38.545Z,10.07
2022-09-11T09:10:24.642Z,10.77
2022-09-11T09:13:07.604Z,10.90
2022-09-11T09:15:48.914Z,13.20
2022-09-11T09:18:32.001Z,14.00
2022-09-11T09:21:13.904Z,13.97
2022-09-11T09:23:50.213Z,14.23
2022-09-11T09:26:20.801Z,15.10
2022-09-11T09:28:56.509Z,13.67
2022-09-11T09:31:33.683Z,15.10
2022-09-11T09:34:08.985Z,14.40
2022-09-11T09:36:48.742Z,12.30
2022-09-11T09:39:22.596Z,11.50
2022-09-11T09:42:40.547Z,11.40
2022-09-11T09:45:33.232Z,9.80
2022-09-11T09:48:03.209Z,8.23
2022-09-11T09:50:34.812Z,7.67
2022-09-11T09:53:11.492Z,8.17
2022-09-11T09:55:42.336Z,8.13
2022-09-11T09:58:10.615Z,7.63
2022-09-11T10:00:41.782Z,8.50
2022-09-11T10:03:23.181Z,8.37
2022-09-11T10:05:54.512Z,9.10
2022-09-11T10:08:33.412Z,9.23
2022-09-11T10:11:05.113Z,10.37
2022-09-11T10:13:36.746Z,9.00
2022-09-11T10:16:20.695Z,9.07
2022-09-11T10:18:51.413Z,9.77
2022-09-11T10:21:25.929Z,8.60
2022-09-11T10:23:57.791Z,8.90
2022-09-11T10:26:32.728Z,8.00
2022-09-11T10:29:08.113Z,8.20
2022-09-11T10:31:40.909Z,8.70
2022-09-11T10:34:19.962Z,8.50
2022-09-11T10:36:56.191Z,8.33
2022-09-11T10:39:28.320Z,7.83
2022-09-11T10:42:04.444Z,8.10
2022-09-11T10:44:34.841Z,8.07
2022-09-11T10:47:17.333Z,8.57
2022-09-11T10:49:47.931Z,8.30
2022-09-11T10:52:22.117Z,8.60
2022-09-11T10:55:09.502Z,7.97
2022-09-11T10:57:45.150Z,9.03
2022-09-11T11:00:19.133Z,9.10
2022-09-11T11:02:50.997Z,8.20
2022-09-11T11:05:33.557Z,9.67
2022-09-11T11:08:36.769Z,9.00
2022-09-11T11:11:28.635Z,9.40
2022-09-11T11:14:27.139Z,8.90
2022-09-11T11:17:10.715Z,8.00
2022-09-11T11:19:59.866Z,6.40
2022-09-11T11:22:59.559Z,5.67
2022-09-11T11:25:40.950Z,6.57
2022-09-11T11:28:43.544Z,7.60
2022-09-11T11:31:33.579Z,8.07
2022-09-11T11:34:30.331Z,7.07
2022-09-11T11:37:07.696Z,8.27
2022-09-11T11:39:50.045Z,7.67
2022-09-11T11:42:27.704Z,7.43
2022-09-11T11:45:04.248Z,8.00
2022-09-11T11:47:42.398Z,6.43
2022-09-11T11:50:27.409Z,5.73
2022-09-11T11:53:08.324Z,6.13
2022-09-11T11:55:52.800Z,5.90
2022-09-11T11:58:41.408Z,4.60
2022-09-11T12:01:22.137Z,4.87
2022-09-11T12:04:02.599Z,4.47
2022-09-11T12:06:31.287Z,3.80
2022-09-11T12:09:09.914Z,4.57
2022-09-11T12:11:40.383Z,4.77
2022-09-11T12:14:28.645Z,5.00
2022-09-11T12:16:58.347Z,4.80
2022-09-11T12:19:26.974Z,5.27
2022-09-11T12:22:33.436Z,4.47
2022-09-11T12:25:03.274Z,4.33
2022-09-11T12:28:09.475Z,4.60
2022-09-11T12:31:05.387Z,4.70
2022-09-11T12:33:55.693Z,4.63
2022-09-11T12:36:49.454Z,4.70
2022-09-11T12:39:28.834Z,5.70
2022-09-11T12:42:47.623Z,5.10
2022-09-11T12:45:38.401Z,5.50
2022-09-11T12:48:12.648Z,6.00
2022-09-11T12:50:50.058Z,4.00
2022-09-11T12:53:25.531Z,4.23
2022-09-11T12:56:01.654Z,4.90
2022-09-11T12:58:36.811Z,4.70
2022-09-11T13:01:21.428Z,4.93
2022-09-11T13:03:59.337Z,4.67
2022-09-11T13:06:43.639Z,4.73
2022-09-11T13:09:24.037Z,4.37
2022-09-11T13:11:54.660Z,4.57
2022-09-11T13:14:52.578Z,4.10
2022-09-11T13:17:30.350Z,4.23
2022-09-11T13:20:22.404Z,4.67
2022-09-11T13:22:57.590Z,5.30
2022-09-11T13:25:27.859Z,5.47
2022-09-11T13:28:01.178Z,5.77
2022-09-11T13:30:30.053Z,5.27
2022-09-11T13:33:08.507Z,5.50
2022-09-11T13:35:40.275Z,5.77
2022-09-11T13:38:16.655Z,5.87
2022-09-11T13:40:50.377Z,5.83
2022-09-11T13:43:25.720Z,5.60
2022-09-11T13:46:27.863Z,5.57
2022-09-11T13:49:15.421Z,5.13
2022-09-11T13:51:48.151Z,5.27
2022-09-11T13:54:28.499Z,4.80
2022-09-11T13:57:17.458Z,4.90
2022-09-11T13:59:49.745Z,4.67
2022-09-11T14:02:38.925Z,4.83
2022-09-11T14:05:17.601Z,5.47
2022-09-11T14:07:56.442Z,4.50
2022-09-11T14:10:31.083Z,4.73
2022-09-11T14:13:12.423Z,4.80
2022-09-11T14:15:46.147Z,4.97
2022-09-11T14:18:35.047Z,4.57
2022-09-11T14:21:14.042Z,3.60
2022-09-11T14:23:48.134Z,4.23
2022-09-11T14:26:19.568Z,4.47
2022-09-11T14:29:05.773Z,4.60
2022-09-11T14:31:38.438Z,4.83
2022-09-11T14:34:20.811Z,4.57
2022-09-11T14:36:56.199Z,4.80
2022-09-11T14:39:33.963Z,5.90
2022-09-11T14:42:07.307Z,5.43
2022-09-11T14:44:39.412Z,5.30
2022-09-11T14:47:13.675Z,4.93
2022-09-11T14:49:41.892Z,5.20
2022-09-11T14:52:16.138Z,5.73
2022-09-11T14:54:46.373Z,5.50
2022-09-11T14:57:20.859Z,5.17
2022-09-11T14:59:51.113Z,5.13
2022-09-11T15:02:23.364Z,5.10
2022-09-11T15:04:54.002Z,4.80
2022-09-11T15:07:25.143Z,4.57
2022-09-11T15:09:54.841Z,4.90
2022-09-11T15:12:24.252Z,4.80
2022-09-11T15:14:58.509Z,4.73
2022-09-11T15:17:31.200Z,4.80
2022-09-11T15:20:00.355Z,4.50
2022-09-11T15:22:31.301Z,4.67
2022-09-11T15:24:59.963Z,4.80
2022-09-11T15:27:29.133Z,4.60
2022-09-11T15:29:57.534Z,4.63
2022-09-11T15:32:25.776Z,4.70
2022-09-11T15:34:54.948Z,4.87
2022-09-11T15:37:25.472Z,4.80
2022-09-11T15:39:55.072Z,5.40
2022-09-11T15:42:24.391Z,5.57
2022-09-11T15:44:53.174Z,5.00
2022-09-11T15:47:22.125Z,5.23
2022-09-11T15:49:50.432Z,4.33
2022-09-11T15:52:19.390Z,4.80
2022-09-11T15:54:48.768Z,5.23
2022-09-11T15:57:18.526Z,4.80
2022-09-11T15:59:46.739Z,4.50
2022-09-11T16:02:15.713Z,4.87
2022-09-11T16:04:44.076Z,4.23
2022-09-11T16:07:12.328Z,4.13
2022-09-11T16:09:41.840Z,4.63
2022-09-11T16:12:11.108Z,4.20
2022-09-11T16:14:40.700Z,4.57
2022-09-11T16:17:10.185Z,5.50
2022-09-11T16:19:39.393Z,4.77
2022-09-11T16:22:08.787Z,4.90
2022-09-11T16:24:38.213Z,5.33
2022-09-11T16:27:10.182Z,4.47
2022-09-11T16:30:20.328Z,4.97
2022-09-11T16:32:31.736Z,4.40
2022-09-11T16:35:00.052Z,5.60
2022-09-11T16:37:33.941Z,5.67
2022-09-11T16:40:05.979Z,5.13
2022-09-11T16:42:34.825Z,5.20
2022-09-11T16:45:05.153Z,4.90
2022-09-11T16:47:33.611Z,5.03
2022-09-11T16:50:07.448Z,5.77
2022-09-11T16:52:37.044Z,5.50
2022-09-11T16:55:07.318Z,5.53
2022-09-11T16:57:37.229Z,5.57
2022-09-11T17:00:09.512Z,5.50
2022-09-11T17:02:38.331Z,5.60
2022-09-11T17:05:08.250Z,5.43
2022-09-11T17:07:37.688Z,5.73
2022-09-11T17:10:07.754Z,4.90
2022-09-11T17:12:37.191Z,6.83
2022-09-11T17:15:09.076Z,5.90
2022-09-11T17:17:37.928Z,5.27
2022-09-11T17:20:09.608Z,5.23
2022-09-11T17:22:38.004Z,5.67
2022-09-11T17:25:08.017Z,4.97
2022-09-11T17:27:37.103Z,5.70
2022-09-11T17:30:08.143Z,5.87
2022-09-11T17:32:38.637Z,5.93
2022-09-11T17:35:07.625Z,5.50
2022-09-11T17:37:37.496Z,5.40
2022-09-11T17:40:07.709Z,4.87
2022-09-11T17:42:36.609Z,5.57
2022-09-11T17:45:09.064Z,5.47
2022-09-11T17:47:37.305Z,5.20
2022-09-11T17:50:06.872Z,5.33
2022-09-11T17:52:36.805Z,5.03
2022-09-11T17:55:06.057Z,4.87
2022-09-11T17:57:34.561Z,5.40
2022-09-11T18:00:06.347Z,4.93
2022-09-11T18:02:40.722Z,5.77
2022-09-11T18:05:09.820Z,5.40
2022-09-11T18:07:39.021Z,5.70
2022-09-11T18:10:08.616Z,5.47
2022-09-11T18:12:37.435Z,6.07
2022-09-11T18:15:09.457Z,7.17
2022-09-11T18:17:38.082Z,7.00
2022-09-11T18:20:09.677Z,7.67
2022-09-11T18:22:39.918Z,7.13
2022-09-11T18:25:10.215Z,7.43
2022-09-11T18:27:40.126Z,7.30
2022-09-11T18:30:13.058Z,7.10
2022-09-11T18:32:41.843Z,7.07
2022-09-11T18:35:11.532Z,6.07
2022-09-11T18:37:39.752Z,6.97
2022-09-11T18:40:09.602Z,6.07
2022-09-11T18:42:37.932Z,6.37
2022-09-11T18:45:08.557Z,6.53
2022-09-11T18:47:38.656Z,6.23
2022-09-11T18:50:09.069Z,6.10
2022-09-11T18:52:37.297Z,6.40
2022-09-11T18:55:06.477Z,6.27
2022-09-11T18:57:40.123Z,6.80
2022-09-11T19:00:14.088Z,6.63
2022-09-11T19:02:44.461Z,6.40
2022-09-11T19:05:15.356Z,6.63
2022-09-11T19:07:45.105Z,6.90
2022-09-11T19:10:13.708Z,6.60
2022-09-11T19:12:42.122Z,6.67
2022-09-11T19:15:11.732Z,5.30
2022-09-11T19:17:40.344Z,5.77
2022-09-11T19:20:12.584Z,5.53
2022-09-11T19:22:41.099Z,6.37
2022-09-11T19:25:11.019Z,5.43
2022-09-11T19:27:39.469Z,5.83
2022-09-11T19:30:09.077Z,5.23
2022-09-11T19:32:37.461Z,5.63
2022-09-11T19:35:07.094Z,5.63
2022-09-11T19:37:37.296Z,5.57
2022-09-11T19:40:07.098Z,5.50
2022-09-11T19:42:35.911Z,5.37
2022-09-11T19:45:05.792Z,6.07
2022-09-11T19:47:34.020Z,5.87
2022-09-11T19:50:02.809Z,5.90
2022-09-11T19:52:33.011Z,5.30
2022-09-11T19:55:03.817Z,5.00
2022-09-11T19:57:32.032Z,4.97
2022-09-11T20:00:00.640Z,5.40
2022-09-11T20:02:29.665Z,4.57
2022-09-11T20:04:57.868Z,4.70
2022-09-11T20:07:26.185Z,4.80
2022-09-11T20:09:54.983Z,4.67
2022-09-11T20:12:24.588Z,4.90
2022-09-11T20:14:52.810Z,4.80
2022-09-11T20:17:22.163Z,4.73
2022-09-11T20:19:50.458Z,5.07
2022-09-11T20:22:19.889Z,5.00
2022-09-11T20:24:49.640Z,4.80
2022-09-11T20:27:18.316Z,4.77
2022-09-11T20:29:48.007Z,4.80
2022-09-11T20:32:18.024Z,4.97
2022-09-11T20:34:46.677Z,4.23
2022-09-11T20:37:15.538Z,4.63
2022-09-11T20:39:43.960Z,4.30
2022-09-11T20:42:13.393Z,4.03
2022-09-11T20:44:42.383Z,4.63
2022-09-11T20:47:13.999Z,4.00
2022-09-11T20:49:43.097Z,4.37
2022-09-11T20:52:12.752Z,4.30
2022-09-11T20:54:41.296Z,4.50
2022-09-11T20:57:10.340Z,4.27
2022-09-11T20:59:39.175Z,4.53
2022-09-11T21:02:07.942Z,4.63
2022-09-11T21:04:39.253Z,4.43
2022-09-11T21:07:07.508Z,4.83
2022-09-11T21:09:35.908Z,4.43
2022-09-11T21:12:04.905Z,4.53
2022-09-11T21:14:33.148Z,4.87
2022-09-11T21:17:02.140Z,4.60
2022-09-11T21:19:31.011Z,4.40
2022-09-11T21:22:00.918Z,4.73
2022-09-11T21:24:29.171Z,4.70
2022-09-11T21:26:57.996Z,4.90
2022-09-11T21:29:26.721Z,5.00
2022-09-11T21:31:54.977Z,4.77
2022-09-11T21:34:23.734Z,4.27
2022-09-11T21:36:51.937Z,5.10
2022-09-11T21:39:21.517Z,5.03
2022-09-11T21:41:50.222Z,4.70
2022-09-11T21:44:19.304Z,4.47
2022-09-11T21:46:48.167Z,4.60
2022-09-11T21:49:16.652Z,4.40
2022-09-11T21:51:44.898Z,4.73
2022-09-11T21:54:13.129Z,4.20
2022-09-11T21:56:42.930Z,4.57
2022-09-11T21:59:11.148Z,4.87
2022-09-11T22:01:39.936Z,4.63
2022-09-11T22:04:08.209Z,4.67
2022-09-11T22:06:38.249Z,4.83
2022-09-11T22:09:07.084Z,4.70
2022-09-11T22:11:35.322Z,4.93
2022-09-11T22:14:06.612Z,5.10
2022-09-11T22:16:34.878Z,4.87
2022-09-11T22:19:03.196Z,5.30
2022-09-11T22:21:31.801Z,4.67
2022-09-11T22:24:00.394Z,5.00
2022-09-11T22:26:30.105Z,4.93
2022-09-11T22:29:00.812Z,4.63
2022-09-11T22:31:31.073Z,4.10
2022-09-11T22:33:59.349Z,4.03
2022-09-11T22:36:30.568Z,4.17
2022-09-11T22:38:59.863Z,4.47
2022-09-11T22:41:28.632Z,4.30
2022-09-11T22:43:57.374Z,4.77
2022-09-11T22:46:26.735Z,4.30
2022-09-11T22:48:57.031Z,4.23
2022-09-11T22:51:26.258Z,4.23
2022-09-11T22:53:54.495Z,4.27
2022-09-11T22:56:23.246Z,3.80
2022-09-11T22:58:53.167Z,3.47
2022-09-11T23:01:24.137Z,4.03
2022-09-11T23:03:53.699Z,4.40
2022-09-11T23:06:41.341Z,4.07
2022-09-11T23:09:16.616Z,4.60
2022-09-11T23:11:46.808Z,4.70
2022-09-11T23:14:15.197Z,4.50
2022-09-11T23:16:44.071Z,4.07
2022-09-11T23:19:14.867Z,4.40
2022-09-11T23:21:44.733Z,4.53
2022-09-11T23:24:15.355Z,4.53
2022-09-11T23:26:45.230Z,4.53
2022-09-11T23:29:13.695Z,4.97
2022-09-11T23:31:44.091Z,4.83
2022-09-11T23:34:17.524Z,4.87
2022-09-11T23:36:47.143Z,4.73
2022-09-11T23:39:16.033Z,4.10
2022-09-11T23:41:44.622Z,4.10
2022-09-11T23:44:12.864Z,4.10
2022-09-11T23:46:41.141Z,4.53
2022-09-11T23:49:10.879Z,4.90
2022-09-11T23:51:40.081Z,5.40
2022-09-11T23:54:10.650Z,4.73
2022-09-11T23:56:39.191Z,5.10
2022-09-11T23:59:07.964Z,5.27
